Time;durP1;ratioP1;P1;durP2;ratioP2;P2;SDS_P1;SDS_P2;PMS_P1;PMS_P2;Temp;Humidity;BMP_temperature;BMP_pressure;BME280_temperature;BME280_humidity;BME280_pressure;Samples;Min_cycle;Max_cycle;Signal;HPM_P1;HPM_P2
2021/04/20 00:01:57;;;;;;;12.65;5.38;;;9.40;68.80;;;;;;4977089;28;20030;-77
2021/04/20 00:04:23;;;;;;;10.57;5.60;;;9.40;68.90;;;;;;4981273;28;20023;-77
2021/04/20 00:06:48;;;;;;;13.35;5.68;;;9.40;69.10;;;;;;4977827;28;20039;-77
2021/04/20 00:09:14;;;;;;;13.60;5.95;;;9.40;69.30;;;;;;4984362;28;20488;-77
2021/04/20 00:11:40;;;;;;;14.43;5.25;;;9.40;69.50;;;;;;4980049;28;20094;-77
2021/04/20 00:14:10;;;;;;;13.13;6.20;;;9.30;69.40;;;;;;4981420;28;20081;-76
2021/04/20 00:16:35;;;;;;;13.32;5.60;;;9.30;69.40;;;;;;4979437;28;20469;-76
2021/04/20 00:19:03;;;;;;;14.73;5.47;;;9.30;69.30;;;;;;4982443;28;20092;-76
2021/04/20 00:21:28;;;;;;;10.70;6.25;;;9.30;69.90;;;;;;4986025;28;20384;-76
2021/04/20 00:23:54;;;;;;;14.50;6.10;;;9.30;70.10;;;;;;4986106;28;20034;-77
2021/04/20 00:26:20;;;;;;;16.92;6.22;;;9.20;70.10;;;;;;4979264;28;20034;-76
2021/04/20 00:28:45;;;;;;;13.35;6.50;;;9.10;70.90;;;;;;4996615;28;20066;-77
2021/04/20 00:31:11;;;;;;;13.35;5.78;;;9.10;70.70;;;;;;4998496;28;20041;-77
2021/04/20 00:33:37;;;;;;;15.10;6.43;;;9.10;71.00;;;;;;4987031;28;20033;-77
2021/04/20 00:36:03;;;;;;;14.98;6.13;;;9.10;71.00;;;;;;4978137;28;20034;-76
2021/04/20 00:38:29;;;;;;;12.75;7.25;;;9.00;71.30;;;;;;4984653;28;20034;-76
2021/04/20 00:41:05;;;;;;;16.90;6.22;;;9.00;71.60;;;;;;4985961;28;20030;-76
2021/04/20 00:43:49;;;;;;;14.13;6.75;;;9.00;71.70;;;;;;4975984;28;20018;-76
2021/04/20 00:46:17;;;;;;;16.00;6.30;;;9.00;71.90;;;;;;4987308;28;20057;-77
2021/04/20 00:48:43;;;;;;;14.25;6.65;;;8.90;72.20;;;;;;4984740;28;20041;-77
2021/04/20 00:51:09;;;;;;;13.43;6.53;;;8.90;72.20;;;;;;4989692;28;20037;-77
2021/04/20 00:53:36;;;;;;;13.40;6.78;;;8.90;72.40;;;;;;4981658;28;20397;-76
2021/04/20 00:56:02;;;;;;;13.43;7.15;;;8.90;72.70;;;;;;4983854;28;20026;-77
2021/04/20 00:58:31;;;;;;;12.05;7.05;;;8.90;72.80;;;;;;4983187;28;20018;-77
2021/04/20 01:00:58;;;;;;;14.38;7.10;;;8.90;73.10;;;;;;4983873;28;20023;-77
2021/04/20 01:03:24;;;;;;;13.55;6.60;;;8.80;73.30;;;;;;4985706;28;20030;-77
2021/04/20 01:05:51;;;;;;;15.77;6.95;;;8.80;73.50;;;;;;4982552;28;20031;-76
2021/04/20 01:08:19;;;;;;;11.88;6.47;;;8.80;73.70;;;;;;4983322;28;20037;-76
2021/04/20 01:10:51;;;;;;;18.52;7.43;;;8.80;73.80;;;;;;4984546;28;20049;-77
2021/04/20 01:13:17;;;;;;;18.92;7.32;;;8.80;73.80;;;;;;5004184;28;20030;-77
2021/04/20 01:15:49;;;;;;;13.98;6.93;;;8.70;73.80;;;;;;4984032;28;20439;-77
2021/04/20 01:18:27;;;;;;;11.88;6.45;;;8.70;73.80;;;;;;4984125;28;20045;-77
2021/04/20 01:20:56;;;;;;;17.15;7.35;;;8.70;74.00;;;;;;4983859;28;20038;-77
2021/04/20 01:23:48;;;;;;;17.85;6.60;;;8.70;74.10;;;;;;4987228;28;20026;-77
2021/04/20 01:26:15;;;;;;;17.77;6.95;;;8.70;73.80;;;;;;4986558;28;20026;-76
2021/04/20 01:28:42;;;;;;;13.13;6.93;;;8.70;73.90;;;;;;4990380;28;20085;-77
2021/04/20 01:31:08;;;;;;;15.88;6.68;;;8.60;73.80;;;;;;4986532;28;20049;-77
2021/04/20 01:33:34;;;;;;;14.25;6.95;;;8.60;73.80;;;;;;4987685;28;20031;-77
2021/04/20 01:36:00;;;;;;;14.73;7.35;;;8.60;73.70;;;;;;4980808;28;20119;-76
2021/04/20 01:38:29;;;;;;;13.57;6.45;;;8.50;74.00;;;;;;4978107;28;20117;-76
2021/04/20 01:40:55;;;;;;;15.07;6.75;;;8.60;74.00;;;;;;4980284;28;20030;-76
2021/04/20 01:43:21;;;;;;;13.07;6.57;;;8.50;73.60;;;;;;4998294;28;20027;-76
2021/04/20 01:45:48;;;;;;;16.52;6.32;;;8.50;73.80;;;;;;4981434;28;20030;-77
2021/04/20 01:48:14;;;;;;;15.05;6.80;;;8.50;73.50;;;;;;4985193;28;20046;-76
2021/04/20 01:50:41;;;;;;;16.65;6.60;;;8.50;73.70;;;;;;4986164;28;20031;-76
2021/04/20 01:53:07;;;;;;;16.40;6.72;;;8.50;73.50;;;;;;4987111;28;20034;-76
2021/04/20 01:55:34;;;;;;;14.88;6.13;;;8.40;73.40;;;;;;4982277;28;20026;-77
2021/04/20 01:58:02;;;;;;;15.82;6.22;;;8.40;73.80;;;;;;4982009;28;20029;-76
2021/04/20 02:00:29;;;;;;;14.73;6.60;;;8.40;73.70;;;;;;4981056;28;20038;-77
2021/04/20 02:02:55;;;;;;;18.45;7.00;;;8.40;73.50;;;;;;4981965;28;20042;-77
2021/04/20 02:05:21;;;;;;;13.93;6.78;;;8.30;73.70;;;;;;4982427;28;20026;-77
2021/04/20 02:07:47;;;;;;;12.90;6.28;;;8.30;73.50;;;;;;4982113;28;20476;-76
2021/04/20 02:10:14;;;;;;;17.35;6.60;;;8.40;73.70;;;;;;4981496;28;20026;-77
2021/04/20 02:12:41;;;;;;;16.50;6.40;;;8.30;73.50;;;;;;4979538;28;20480;-77
2021/04/20 02:15:11;;;;;;;14.57;6.65;;;8.40;73.30;;;;;;4979911;28;20082;-77
2021/04/20 02:17:38;;;;;;;15.93;7.60;;;8.30;73.40;;;;;;4981879;28;20038;-77
2021/04/20 02:20:08;;;;;;;14.73;7.22;;;8.30;73.50;;;;;;4987119;28;20034;-77
2021/04/20 02:22:54;;;;;;;14.40;6.93;;;8.30;73.40;;;;;;4979291;28;20053;-76
2021/04/20 02:25:20;;;;;;;13.68;6.38;;;8.30;73.40;;;;;;4976117;28;20050;-77
2021/04/20 02:27:49;;;;;;;13.32;6.25;;;8.30;73.40;;;;;;4979659;28;20438;-77
2021/04/20 02:30:16;;;;;;;15.10;6.32;;;8.30;73.30;;;;;;4982809;28;20082;-77
2021/04/20 02:32:42;;;;;;;15.93;6.88;;;8.20;73.50;;;;;;4976727;28;20984;-77
2021/04/20 02:35:11;;;;;;;15.13;6.85;;;8.20;73.60;;;;;;4978558;28;20030;-77
2021/04/20 02:37:38;;;;;;;18.00;7.28;;;8.10;73.90;;;;;;4986518;28;20041;-77
2021/04/20 02:40:06;;;;;;;13.48;6.68;;;8.10;74.10;;;;;;4980849;28;20031;-77
2021/04/20 02:42:33;;;;;;;15.20;7.05;;;8.10;74.10;;;;;;4980006;28;20023;-76
2021/04/20 02:45:01;;;;;;;11.40;6.05;;;8.10;74.00;;;;;;4977646;28;20027;-77
2021/04/20 02:47:28;;;;;;;15.85;7.40;;;8.10;73.80;;;;;;4980239;28;20030;-77
2021/04/20 02:49:55;;;;;;;13.70;6.63;;;8.00;73.90;;;;;;4977665;28;20039;-76
2021/04/20 02:52:22;;;;;;;14.52;6.03;;;8.00;73.80;;;;;;4980918;28;20026;-77
2021/04/20 02:54:48;;;;;;;16.35;6.55;;;8.00;74.00;;;;;;4976951;28;20031;-76
2021/04/20 02:57:16;;;;;;;15.70;6.70;;;8.00;73.90;;;;;;4996048;28;20099;-76
2021/04/20 02:59:42;;;;;;;18.10;7.45;;;8.00;74.10;;;;;;4980064;28;20027;-77
2021/04/20 03:02:10;;;;;;;15.80;6.72;;;7.90;74.10;;;;;;4978760;28;20031;-76
2021/04/20 03:04:38;;;;;;;12.77;6.10;;;8.00;74.50;;;;;;4983333;28;20022;-76
2021/04/20 03:07:04;;;;;;;12.73;7.00;;;7.90;74.40;;;;;;4983618;28;20030;-76
2021/04/20 03:09:31;;;;;;;12.80;6.20;;;7.90;74.40;;;;;;4979488;28;20117;-77
2021/04/20 03:11:58;;;;;;;13.35;6.95;;;7.90;74.50;;;;;;4980420;28;20102;-77
2021/04/20 03:14:26;;;;;;;13.00;6.35;;;7.90;74.40;;;;;;4978714;28;20081;-76
2021/04/20 03:16:52;;;;;;;15.02;6.95;;;7.90;74.50;;;;;;4979829;28;20030;-76
2021/04/20 03:19:21;;;;;;;14.95;6.60;;;7.90;74.40;;;;;;4980947;28;20085;-76
2021/04/20 03:21:48;;;;;;;15.45;6.57;;;7.80;74.30;;;;;;4982360;28;20034;-76
2021/04/20 03:24:32;;;;;;;13.23;6.78;;;7.90;74.30;;;;;;4984086;28;20420;-77
2021/04/20 03:26:58;;;;;;;15.25;6.68;;;7.90;74.20;;;;;;4979707;28;20030;-77
2021/04/20 03:29:24;;;;;;;16.00;6.90;;;7.80;74.40;;;;;;4983632;28;20027;-77
2021/04/20 03:31:50;;;;;;;13.40;7.05;;;7.80;74.60;;;;;;4983520;28;20066;-77
2021/04/20 03:34:24;;;;;;;14.50;6.80;;;7.70;74.70;;;;;;4982060;28;20094;-76
2021/04/20 03:37:04;;;;;;;14.43;6.28;;;7.70;74.60;;;;;;4974873;28;20043;-76
2021/04/20 03:39:36;;;;;;;17.23;6.80;;;7.70;74.90;;;;;;4978843;28;20054;-76
2021/04/20 03:42:03;;;;;;;;;;;7.70;75.00;;;;;;4980241;28;20042;-76
2021/04/20 03:44:51;;;;;;;13.05;5.88;;;7.70;74.50;;;;;;4983948;28;19914;-77
2021/04/20 03:47:43;;;;;;;13.73;6.35;;;7.60;74.40;;;;;;4982388;28;20034;-76
2021/04/20 03:50:22;;;;;;;12.20;7.10;;;7.60;74.60;;;;;;4982744;28;20031;-76
2021/04/20 03:52:51;;;;;;;14.38;6.45;;;7.60;74.70;;;;;;4991846;28;20030;-76
2021/04/20 03:55:21;;;;;;;14.82;7.15;;;7.60;75.40;;;;;;5002471;28;20435;-77
2021/04/20 03:57:48;;;;;;;14.60;6.78;;;7.60;74.70;;;;;;4980769;28;20030;-76
2021/04/20 04:00:16;;;;;;;13.60;6.97;;;7.60;74.90;;;;;;4982402;28;20023;-77
2021/04/20 04:02:45;;;;;;;15.07;6.90;;;7.60;74.70;;;;;;4986554;28;20030;-77
2021/04/20 04:05:16;;;;;;;13.93;6.85;;;7.50;75.00;;;;;;4985579;28;20076;-76
2021/04/20 04:07:43;;;;;;;12.75;6.63;;;7.60;74.70;;;;;;4993468;28;20045;-76
2021/04/20 04:10:10;;;;;;;16.45;7.60;;;7.50;74.80;;;;;;4983034;28;20030;-76
2021/04/20 04:12:38;;;;;;;18.05;7.05;;;7.50;74.90;;;;;;4982455;28;20496;-76
2021/04/20 04:15:07;;;;;;;12.55;7.00;;;7.50;75.30;;;;;;4978149;28;20031;-76
2021/04/20 04:17:34;;;;;;;16.38;6.90;;;7.40;75.20;;;;;;4977633;28;20099;-77
2021/04/20 04:20:02;;;;;;;15.10;7.07;;;7.40;75.40;;;;;;4985653;28;20560;-76
2021/04/20 04:22:58;;;;;;;15.60;6.35;;;7.40;75.30;;;;;;4983613;28;20030;-77
2021/04/20 04:25:32;;;;;;;17.48;6.45;;;7.40;75.30;;;;;;4972918;28;20038;-76
2021/04/20 04:28:01;;;;;;;13.13;7.15;;;7.30;75.40;;;;;;4981525;28;20498;-76
2021/04/20 04:30:28;;;;;;;14.45;7.20;;;7.30;75.30;;;;;;4981123;28;20600;-77
2021/04/20 04:32:54;;;;;;;14.63;6.80;;;7.30;75.60;;;;;;4988213;28;20027;-76
2021/04/20 04:35:21;;;;;;;13.90;6.53;;;7.40;75.70;;;;;;4981696;28;20026;-77
2021/04/20 04:37:48;;;;;;;14.48;6.70;;;7.40;75.60;;;;;;4990790;23;20043;-91
2021/04/20 04:40:17;;;;;;;14.63;7.18;;;7.40;75.40;;;;;;4989491;28;20026;-90
2021/04/20 04:42:43;;;;;;;15.55;7.07;;;7.40;75.20;;;;;;4982684;28;20022;-88
2021/04/20 04:45:10;;;;;;;16.25;7.57;;;7.40;75.40;;;;;;5006790;28;20029;-90
2021/04/20 04:47:40;;;;;;;15.75;7.03;;;7.30;75.40;;;;;;5015120;28;20098;-90
2021/04/20 04:50:08;;;;;;;14.18;7.40;;;7.30;75.50;;;;;;5012076;28;20049;-91
2021/04/20 04:52:35;;;;;;;12.93;6.65;;;7.40;75.40;;;;;;5011669;23;20039;-71
2021/04/20 04:55:03;;;;;;;14.05;6.78;;;7.40;75.60;;;;;;4966294;28;20057;-70
2021/04/20 04:57:30;;;;;;;10.45;6.55;;;7.40;75.60;;;;;;4984978;28;20130;-70
2021/04/20 05:00:00;;;;;;;13.80;6.88;;;7.40;75.60;;;;;;4947257;28;20121;-72
2021/04/20 05:02:30;;;;;;;13.77;7.10;;;7.40;75.60;;;;;;4945917;29;20486;-70
2021/04/20 05:04:57;;;;;;;12.88;7.00;;;7.50;75.50;;;;;;4952403;29;20041;-70
2021/04/20 05:07:23;;;;;;;16.30;7.85;;;7.50;75.40;;;;;;4944438;28;20031;-70
2021/04/20 05:09:50;;;;;;;12.77;6.32;;;7.50;75.50;;;;;;4945067;28;20545;-70
2021/04/20 05:12:20;;;;;;;16.08;7.28;;;7.50;75.50;;;;;;4952214;28;20078;-70
2021/04/20 05:14:47;;;;;;;13.25;6.68;;;7.50;75.20;;;;;;4947268;29;20033;-70
2021/04/20 05:17:13;;;;;;;14.02;6.55;;;7.50;75.10;;;;;;4947638;28;20034;-70
2021/04/20 05:19:41;;;;;;;14.07;6.75;;;7.50;75.10;;;;;;4947862;28;20030;-70
2021/04/20 05:22:07;;;;;;;12.57;6.32;;;7.50;75.20;;;;;;4943747;29;20449;-70
2021/04/20 05:24:33;;;;;;;12.25;6.15;;;7.50;75.10;;;;;;4950937;28;20111;-70
2021/04/20 05:26:59;;;;;;;13.10;6.10;;;7.50;75.00;;;;;;4948782;28;20385;-71
2021/04/20 05:29:25;;;;;;;12.27;6.68;;;7.50;75.20;;;;;;4950504;28;20070;-70
2021/04/20 05:31:51;;;;;;;12.85;6.80;;;7.50;75.30;;;;;;4948736;29;20523;-71
2021/04/20 05:34:21;;;;;;;11.70;6.40;;;7.50;75.20;;;;;;4948685;29;20043;-71
2021/04/20 05:36:47;;;;;;;12.77;6.03;;;7.50;75.20;;;;;;4950439;28;20019;-70
2021/04/20 05:39:15;;;;;;;14.45;6.38;;;7.50;75.20;;;;;;4946981;29;20089;-71
2021/04/20 05:41:41;;;;;;;18.27;6.78;;;7.60;75.20;;;;;;4945003;28;20029;-70
2021/04/20 05:44:10;;;;;;;14.35;6.25;;;7.60;75.30;;;;;;4949375;28;20027;-70
2021/04/20 05:46:37;;;;;;;13.10;6.63;;;7.60;75.10;;;;;;4948434;29;20054;-70
2021/04/20 05:49:04;;;;;;;16.98;6.55;;;7.70;75.30;;;;;;4944343;28;20035;-71
2021/04/20 05:51:30;;;;;;;15.07;6.30;;;7.70;75.00;;;;;;4941626;28;20031;-71
2021/04/20 05:53:56;;;;;;;16.55;6.80;;;7.80;75.20;;;;;;4944850;29;20122;-71
2021/04/20 05:56:23;;;;;;;19.05;6.47;;;7.80;75.10;;;;;;4942563;28;20031;-71
2021/04/20 05:58:54;;;;;;;16.15;6.38;;;7.90;75.10;;;;;;4942247;28;20106;-71
2021/04/20 06:01:21;;;;;;;12.18;5.43;;;7.90;74.90;;;;;;4946857;28;20047;-71
2021/04/20 06:03:49;;;;;;;12.27;6.13;;;7.90;75.10;;;;;;4944827;28;20057;-71
2021/04/20 06:06:17;;;;;;;15.85;6.68;;;7.90;75.10;;;;;;4945924;29;20027;-72
2021/04/20 06:08:44;;;;;;;10.75;5.15;;;8.00;75.20;;;;;;4968370;28;20043;-71
2021/04/20 06:11:10;;;;;;;18.85;6.30;;;8.00;75.20;;;;;;4950469;28;20035;-72
2021/04/20 06:13:36;;;;;;;12.77;5.75;;;8.00;74.90;;;;;;4946487;29;20498;-72
2021/04/20 06:16:03;;;;;;;12.77;6.30;;;8.10;75.50;;;;;;4951772;28;20034;-74
2021/04/20 06:18:30;;;;;;;18.05;5.50;;;8.10;74.80;;;;;;4946038;28;20465;-71
2021/04/20 06:20:58;;;;;;;9.82;4.97;;;8.20;75.10;;;;;;4943484;28;20505;-71
2021/04/20 06:23:24;;;;;;;15.85;5.50;;;8.30;74.20;;;;;;4944747;29;20405;-71
2021/04/20 06:25:57;;;;;;;12.48;5.60;;;8.40;73.60;;;;;;4948573;29;20035;-70
2021/04/20 06:28:24;;;;;;;13.30;5.10;;;8.40;74.00;;;;;;4945638;28;20891;-69
2021/04/20 06:30:50;;;;;;;9.95;5.30;;;8.40;73.60;;;;;;4943304;28;20037;-76
2021/04/20 06:33:16;;;;;;;9.52;5.65;;;8.40;73.50;;;;;;4945194;28;20132;-71
2021/04/20 06:35:43;;;;;;;7.78;4.60;;;8.50;73.50;;;;;;4941260;28;20051;-71
2021/04/20 06:38:13;;;;;;;11.60;5.60;;;8.50;73.20;;;;;;4948053;28;20478;-71
2021/04/20 06:40:47;;;;;;;10.38;4.82;;;8.60;73.20;;;;;;4946635;28;20085;-71
2021/04/20 06:43:14;;;;;;;10.15;4.90;;;8.60;72.70;;;;;;4944862;28;20038;-70
2021/04/20 06:45:46;;;;;;;12.48;5.10;;;8.60;72.80;;;;;;4948125;28;20023;-70
2021/04/20 06:48:36;;;;;;;9.05;4.60;;;8.70;72.20;;;;;;4947168;28;20036;-71
2021/04/20 06:51:06;;;;;;;8.05;4.35;;;8.70;71.50;;;;;;4944762;28;20027;-71
2021/04/20 06:53:38;;;;;;;11.15;4.47;;;8.80;71.50;;;;;;4947334;28;20032;-71
2021/04/20 06:56:27;;;;;;;10.95;4.30;;;8.80;71.10;;;;;;4949137;28;20633;-71
2021/04/20 06:59:26;;;;;;;10.38;4.60;;;8.90;71.40;;;;;;4946945;28;20111;-71
2021/04/20 07:01:59;;;;;;;9.70;4.60;;;9.00;70.80;;;;;;4941819;28;20041;-71
2021/04/20 07:04:45;;;;;;;11.82;5.32;;;9.00;69.90;;;;;;4945955;28;20033;-71
2021/04/20 07:07:39;;;;;;;9.23;4.78;;;9.10;69.60;;;;;;4939736;28;20505;-71
2021/04/20 07:10:13;;;;;;;7.82;4.22;;;9.10;69.80;;;;;;4947195;28;20182;-71
2021/04/20 07:12:41;;;;;;;11.02;4.63;;;9.20;69.60;;;;;;4947504;28;20036;-71
2021/04/20 07:15:11;;;;;;;9.05;3.80;;;9.20;69.80;;;;;;4945906;28;20039;-71
2021/04/20 07:17:36;;;;;;;8.55;4.50;;;9.30;69.30;;;;;;4940651;28;20121;-71
2021/04/20 07:20:36;;;;;;;7.93;3.75;;;9.40;68.80;;;;;;4947210;28;20079;-71
2021/04/20 07:23:20;;;;;;;8.00;3.50;;;9.40;68.70;;;;;;4949518;28;20027;-71
2021/04/20 07:26:08;;;;;;;7.47;3.58;;;9.50;68.60;;;;;;4949459;28;20114;-70
2021/04/20 07:28:47;;;;;;;6.78;3.47;;;9.60;68.30;;;;;;4948847;28;20158;-70
2021/04/20 07:31:32;;;;;;;8.45;4.13;;;9.60;68.40;;;;;;4947411;28;20038;-70
2021/04/20 07:34:30;;;;;;;8.93;3.75;;;9.70;68.40;;;;;;4951389;28;20162;-71
2021/04/20 07:36:59;;;;;;;7.93;3.83;;;9.70;67.70;;;;;;4948165;28;20058;-71
2021/04/20 07:39:40;;;;;;;7.72;3.40;;;9.80;67.50;;;;;;4949475;28;20389;-70
2021/04/20 07:42:23;;;;;;;9.77;3.45;;;9.80;66.60;;;;;;4952007;28;20019;-71
2021/04/20 07:44:52;;;;;;;8.35;3.70;;;10.00;64.90;;;;;;4952635;28;20055;-71
2021/04/20 07:47:21;;;;;;;7.00;3.40;;;10.20;66.50;;;;;;4953296;28;20551;-70
2021/04/20 07:49:56;;;;;;;8.23;4.15;;;10.20;65.80;;;;;;4944570;28;20028;-70
2021/04/20 07:52:32;;;;;;;6.20;3.30;;;10.20;65.50;;;;;;4947457;28;20504;-70
2021/04/20 07:55:18;;;;;;;6.70;3.05;;;10.30;63.80;;;;;;4946975;28;20154;-70
2021/04/20 07:57:53;;;;;;;6.40;3.50;;;10.30;63.80;;;;;;4945380;28;20457;-70
2021/04/20 08:00:23;;;;;;;5.38;2.75;;;10.40;63.60;;;;;;4945952;28;20024;-70
2021/04/20 08:02:56;;;;;;;6.05;3.10;;;10.40;64.00;;;;;;4929492;29;20508;-70
2021/04/20 08:05:29;;;;;;;8.32;4.35;;;10.50;64.00;;;;;;4944873;28;20082;-71
2021/04/20 08:07:55;;;;;;;8.73;2.78;;;10.60;63.00;;;;;;4946947;28;20043;-71
2021/04/20 08:10:26;;;;;;;7.45;2.65;;;10.60;62.70;;;;;;4944601;28;20031;-70
2021/04/20 08:13:13;;;;;;;7.05;2.80;;;10.80;61.40;;;;;;4944360;28;20361;-70
2021/04/20 08:15:49;;;;;;;5.85;2.97;;;10.90;60.10;;;;;;4947018;28;20428;-70
2021/04/20 08:18:55;;;;;;;5.50;2.83;;;10.90;59.50;;;;;;4954477;28;20035;-70
2021/04/20 08:21:21;;;;;;;6.78;2.65;;;11.00;58.90;;;;;;4988646;28;20026;-70
2021/04/20 08:23:50;;;;;;;9.32;3.33;;;11.00;59.50;;;;;;4950223;28;20468;-70
2021/04/20 08:26:27;;;;;;;6.50;2.75;;;11.00;60.10;;;;;;4955966;28;20031;-70
2021/04/20 08:29:04;;;;;;;8.88;2.72;;;11.10;59.00;;;;;;4940331;28;20023;-70
2021/04/20 08:31:47;;;;;;;8.50;3.05;;;11.20;59.50;;;;;;4945542;28;20060;-70
2021/04/20 08:34:37;;;;;;;8.25;2.78;;;11.40;57.50;;;;;;4942559;28;20722;-70
2021/04/20 08:37:03;;;;;;;9.02;3.22;;;11.40;57.20;;;;;;4939763;28;20123;-70
2021/04/20 08:39:51;;;;;;;6.10;2.90;;;11.40;56.90;;;;;;4942961;28;20051;-70
2021/04/20 08:42:47;;;;;;;7.15;2.83;;;11.50;57.70;;;;;;4948812;28;20481;-71
2021/04/20 08:45:27;;;;;;;4.88;2.80;;;11.60;58.50;;;;;;4948689;28;20078;-71
2021/04/20 08:48:11;;;;;;;7.45;2.97;;;11.70;58.10;;;;;;4946929;28;20035;-71
2021/04/20 08:50:48;;;;;;;10.43;3.47;;;11.80;58.00;;;;;;4944573;29;20109;-72
2021/04/20 08:53:51;;;;;;;8.40;2.67;;;11.90;57.40;;;;;;4947953;29;20118;-72
2021/04/20 08:56:34;;;;;;;4.88;2.58;;;12.00;57.50;;;;;;4947921;28;20032;-73
2021/04/20 08:59:23;;;;;;;7.65;3.13;;;12.10;56.70;;;;;;4947262;28;20117;-70
2021/04/20 09:01:55;;;;;;;8.60;3.15;;;12.10;56.10;;;;;;4959350;28;20035;-70
2021/04/20 09:04:57;;;;;;;8.23;2.75;;;12.10;56.90;;;;;;4946157;28;20078;-72
2021/04/20 09:07:56;;;;;;;6.95;2.50;;;12.20;55.20;;;;;;4946293;28;20093;-72
2021/04/20 09:10:38;;;;;;;7.03;2.17;;;12.40;53.60;;;;;;4944025;28;20042;-69
2021/04/20 09:13:13;;;;;;;5.10;2.38;;;12.40;53.00;;;;;;4946590;28;20460;-70
2021/04/20 09:15:48;;;;;;;5.35;2.25;;;12.40;55.40;;;;;;4948500;28;20031;-71
2021/04/20 09:18:19;;;;;;;6.50;2.45;;;12.60;58.50;;;;;;4937768;28;20115;-70
2021/04/20 09:20:48;;;;;;;4.95;2.50;;;12.90;55.40;;;;;;4942211;28;20027;-71
2021/04/20 09:23:25;;;;;;;9.48;2.97;;;12.90;52.40;;;;;;4941652;28;20027;-71
2021/04/20 09:26:12;;;;;;;6.55;2.50;;;12.90;50.50;;;;;;4941827;28;20023;-71
2021/04/20 09:28:41;;;;;;;7.05;3.00;;;12.90;50.80;;;;;;4943361;28;20038;-70
2021/04/20 09:31:19;;;;;;;6.15;2.45;;;12.90;50.60;;;;;;4944655;28;20047;-69
2021/04/20 09:33:51;;;;;;;5.20;2.78;;;13.00;49.20;;;;;;4943831;28;20524;-73
2021/04/20 09:36:18;;;;;;;9.23;2.80;;;13.10;47.60;;;;;;4945905;28;20043;-72
2021/04/20 09:38:49;;;;;;;9.50;2.38;;;13.10;49.10;;;;;;4943300;29;20023;-72
2021/04/20 09:41:36;;;;;;;5.35;2.67;;;13.10;49.70;;;;;;4943862;28;20027;-70
2021/04/20 09:44:05;;;;;;;6.60;2.50;;;13.20;50.90;;;;;;4944225;28;20035;-70
2021/04/20 09:46:49;;;;;;;6.00;2.35;;;13.20;50.80;;;;;;4944168;28;20037;-70
2021/04/20 09:49:36;;;;;;;5.72;2.25;;;13.30;50.10;;;;;;4943182;28;20085;-71
2021/04/20 09:52:09;;;;;;;6.72;2.22;;;13.40;49.40;;;;;;4958574;28;20028;-71
2021/04/20 09:54:49;;;;;;;6.60;2.58;;;13.40;49.30;;;;;;4944484;28;20120;-72
2021/04/20 09:57:17;;;;;;;6.40;2.67;;;13.50;49.60;;;;;;4944819;28;20138;-70
2021/04/20 09:59:58;;;;;;;6.70;2.42;;;13.50;50.00;;;;;;4944249;28;20058;-71
2021/04/20 10:02:48;;;;;;;9.15;2.42;;;13.60;48.10;;;;;;4943923;28;20028;-70
2021/04/20 10:05:21;;;;;;;12.30;2.20;;;13.60;47.80;;;;;;4944105;28;20371;-71
2021/04/20 10:07:49;;;;;;;5.35;2.00;;;13.60;47.10;;;;;;4944326;28;20169;-71
2021/04/20 10:10:42;;;;;;;7.80;2.40;;;13.70;47.20;;;;;;4946612;28;20031;-71
2021/04/20 10:13:34;;;;;;;5.45;1.92;;;13.70;48.10;;;;;;4947085;28;20118;-70
2021/04/20 10:16:07;;;;;;;6.28;2.28;;;13.80;48.20;;;;;;4948221;28;20027;-71
2021/04/20 10:18:51;;;;;;;7.97;2.55;;;13.90;48.70;;;;;;4945964;28;20035;-70
2021/04/20 10:21:39;;;;;;;3.92;2.25;;;14.00;47.80;;;;;;4942691;28;20027;-71
2021/04/20 10:24:16;;;;;;;6.60;2.70;;;14.00;47.80;;;;;;4948352;28;20500;-73
2021/04/20 10:26:44;;;;;;;7.78;2.70;;;14.10;48.10;;;;;;4944485;28;20094;-72
2021/04/20 10:29:31;;;;;;;4.03;2.25;;;14.10;46.20;;;;;;4943840;28;20050;-73
2021/04/20 10:32:32;;;;;;;6.40;2.55;;;14.10;47.00;;;;;;4945006;28;20090;-73
2021/04/20 10:35:01;;;;;;;5.40;2.83;;;14.10;46.30;;;;;;4944062;28;20089;-71
2021/04/20 10:37:37;;;;;;;7.95;2.55;;;14.20;46.50;;;;;;4947161;28;20046;-72
2021/04/20 10:40:09;;;;;;;6.95;2.22;;;14.30;45.70;;;;;;4958666;28;20034;-75
2021/04/20 10:42:36;;;;;;;6.70;2.60;;;14.40;45.30;;;;;;4945107;28;20030;-74
2021/04/20 10:45:04;;;;;;;5.07;2.30;;;14.40;44.20;;;;;;4944041;28;20023;-75
2021/04/20 10:47:32;;;;;;;4.72;2.45;;;14.30;45.30;;;;;;4943300;28;20167;-76
2021/04/20 10:49:59;;;;;;;7.88;2.78;;;14.30;45.20;;;;;;4943463;28;20147;-73
2021/04/20 10:52:30;;;;;;;5.03;2.40;;;14.40;44.00;;;;;;4974977;23;20077;-70
2021/04/20 10:55:03;;;;;;;4.40;1.95;;;14.50;42.10;;;;;;4964953;28;20035;-70
2021/04/20 10:57:32;;;;;;;6.05;2.58;;;14.60;41.70;;;;;;4965664;28;20041;-72
2021/04/20 11:00:01;;;;;;;6.30;2.15;;;14.60;40.50;;;;;;4978770;28;20070;-71
2021/04/20 11:02:32;;;;;;;6.72;2.47;;;14.60;41.60;;;;;;4965402;28;20035;-74
2021/04/20 11:04:58;;;;;;;;;;;14.70;41.40;;;;;;4963952;28;20035;-71
2021/04/20 11:07:27;;;;;;;6.53;2.10;;;14.80;42.10;;;;;;4961929;28;19910;-74
2021/04/20 11:10:05;;;;;;;7.80;2.35;;;15.00;42.80;;;;;;4962916;28;20031;-71
2021/04/20 11:12:32;;;;;;;4.63;2.70;;;15.70;42.00;;;;;;4964811;28;20031;-72
2021/04/20 11:14:58;;;;;;;4.60;2.72;;;15.90;39.80;;;;;;4961955;28;20039;-77
2021/04/20 11:17:30;;;;;;;5.15;2.33;;;16.80;39.30;;;;;;4977911;28;20068;-75
2021/04/20 11:20:33;;;;;;;8.00;2.45;;;17.80;37.40;;;;;;4968066;28;20046;-69
2021/04/20 11:23:17;;;;;;;3.60;2.20;;;19.50;33.60;;;;;;4942000;28;20042;-70
2021/04/20 11:25:54;;;;;;;4.80;2.47;;;21.10;31.20;;;;;;4965584;28;20070;-70
2021/04/20 11:28:41;;;;;;;4.80;2.65;;;21.50;29.70;;;;;;4968921;28;20037;-70
2021/04/20 11:31:12;;;;;;;4.85;2.53;;;22.60;28.60;;;;;;4965408;28;20029;-70
2021/04/20 11:33:48;;;;;;;8.10;2.58;;;23.00;28.70;;;;;;4965305;28;20039;-70
2021/04/20 11:36:21;;;;;;;3.75;2.53;;;23.50;28.90;;;;;;4969611;28;20031;-75
2021/04/20 11:38:50;;;;;;;4.40;2.10;;;23.60;27.60;;;;;;4966100;28;20437;-71
2021/04/20 11:41:17;;;;;;;9.02;2.80;;;24.10;25.50;;;;;;4968301;28;20113;-70
2021/04/20 11:43:51;;;;;;;4.70;2.53;;;23.50;25.80;;;;;;4965975;28;20106;-71
2021/04/20 11:46:22;;;;;;;6.20;2.72;;;23.70;26.10;;;;;;4973105;28;20051;-77
2021/04/20 11:48:52;;;;;;;4.97;2.33;;;23.30;26.80;;;;;;4971830;28;20027;-78
2021/04/20 11:51:18;;;;;;;4.93;2.28;;;22.90;27.50;;;;;;4974066;28;20092;-78
2021/04/20 11:53:49;;;;;;;4.78;2.55;;;23.10;27.30;;;;;;4977360;28;20503;-78
2021/04/20 11:56:16;;;;;;;3.72;2.30;;;22.90;26.60;;;;;;4975839;28;20031;-78
2021/04/20 11:58:44;;;;;;;8.38;2.60;;;22.90;26.80;;;;;;4975407;28;20093;-77
2021/04/20 12:01:17;;;;;;;3.60;2.20;;;22.70;27.00;;;;;;4971075;28;20066;-77
2021/04/20 12:03:45;;;;;;;5.45;2.65;;;22.70;26.10;;;;;;4975927;28;20109;-78
2021/04/20 12:06:11;;;;;;;4.15;2.13;;;22.30;26.50;;;;;;4967495;28;20033;-79
2021/04/20 12:08:42;;;;;;;4.85;2.60;;;21.80;27.10;;;;;;4976191;28;20097;-78
2021/04/20 12:11:10;;;;;;;4.55;2.28;;;21.50;28.70;;;;;;4979549;28;20034;-78
2021/04/20 12:13:44;;;;;;;5.45;2.38;;;21.30;29.30;;;;;;4974768;28;20082;-77
2021/04/20 12:16:12;;;;;;;7.53;2.10;;;21.20;29.60;;;;;;4981952;28;20039;-77
2021/04/20 12:18:44;;;;;;;3.20;2.03;;;21.10;29.30;;;;;;4978854;28;20054;-78
2021/04/20 12:21:24;;;;;;;5.88;2.15;;;21.20;28.10;;;;;;4978769;28;20043;-79
2021/04/20 12:23:54;;;;;;;4.95;2.47;;;21.10;29.20;;;;;;4983854;28;20054;-79
2021/04/20 12:26:21;;;;;;;8.52;2.67;;;21.40;28.10;;;;;;4982024;28;20043;-79
2021/04/20 12:28:51;;;;;;;4.90;2.40;;;21.50;28.00;;;;;;4994996;28;20034;-78
2021/04/20 12:31:17;;;;;;;7.70;2.33;;;21.60;28.00;;;;;;4979677;28;20034;-77
2021/04/20 12:33:46;;;;;;;3.78;2.53;;;21.70;28.00;;;;;;4982968;28;20542;-77
2021/04/20 12:36:31;;;;;;;6.47;2.35;;;21.80;28.20;;;;;;4975726;28;20053;-79
2021/04/20 12:39:01;;;;;;;4.47;2.13;;;22.00;28.50;;;;;;4981549;28;20054;-79
2021/04/20 12:41:30;;;;;;;8.80;2.33;;;22.40;27.50;;;;;;4975262;28;20042;-79
2021/04/20 12:44:05;;;;;;;3.67;2.10;;;22.80;26.90;;;;;;4997257;28;20031;-78
2021/04/20 12:46:33;;;;;;;5.88;2.10;;;23.00;27.00;;;;;;4983356;28;20054;-79
2021/04/20 12:49:04;;;;;;;9.20;2.40;;;23.10;27.20;;;;;;4981513;28;20058;-79
2021/04/20 12:51:32;;;;;;;5.70;2.25;;;23.40;25.50;;;;;;4975075;28;20030;-79
2021/04/20 12:54:01;;;;;;;4.38;2.20;;;23.30;25.90;;;;;;4973452;28;20034;-76
2021/04/20 12:56:33;;;;;;;2.83;2.00;;;23.20;25.70;;;;;;4966101;28;20031;-77
2021/04/20 12:59:04;;;;;;;4.97;2.00;;;23.50;26.30;;;;;;4972642;28;20047;-78
2021/04/20 13:02:05;;;;;;;5.13;2.65;;;23.80;26.30;;;;;;4992213;28;20093;-79
2021/04/20 13:04:36;;;;;;;3.53;2.13;;;23.90;25.50;;;;;;4971756;28;20086;-77
2021/04/20 13:07:03;;;;;;;3.72;1.80;;;24.20;25.70;;;;;;4971960;28;20504;-77
2021/04/20 13:09:36;;;;;;;4.07;2.00;;;24.00;25.70;;;;;;4968989;28;20031;-76
2021/04/20 13:12:05;;;;;;;4.18;2.38;;;24.10;25.20;;;;;;4989992;28;20046;-78
2021/04/20 13:14:33;;;;;;;3.55;2.00;;;24.30;25.70;;;;;;4990842;28;20027;-77